sensor_id;sensor_type;location;lat;lon;timestamp;P1;durP1;ratioP1;P2;durP2;ratioP2
12302;SDS011;6214;48.012;7.862;2023-09-19T00:00:37;4.10;;;0.52;;
12302;SDS011;6214;48.012;7.862;2023-09-19T00:03:07;3.90;;;0.60;;
12302;SDS011;6214;48.012;7.862;2023-09-19T00:05:36;4.00;;;0.60;;
12302;SDS011;6214;48.012;7.862;2023-09-19T00:08:11;4.10;;;0.50;;
12302;SDS011;6214;48.012;7.862;2023-09-19T00:10:40;3.90;;;0.50;;
12302;SDS011;6214;48.012;7.862;2023-09-19T00:13:08;4.10;;;0.70;;
12302;SDS011;6214;48.012;7.862;2023-09-19T00:15:43;3.70;;;0.40;;
12302;SDS011;6214;48.012;7.862;2023-09-19T00:18:14;3.90;;;0.50;;
12302;SDS011;6214;48.012;7.862;2023-09-19T00:20:43;3.90;;;0.50;;
12302;SDS011;6214;48.012;7.862;2023-09-19T00:23:14;3.97;;;0.60;;
12302;SDS011;6214;48.012;7.862;2023-09-19T00:25:41;3.80;;;0.50;;
12302;SDS011;6214;48.012;7.862;2023-09-19T00:28:08;4.00;;;0.60;;
12302;SDS011;6214;48.012;7.862;2023-09-19T00:30:36;3.90;;;0.60;;
12302;SDS011;6214;48.012;7.862;2023-09-19T00:33:05;4.20;;;0.60;;
12302;SDS011;6214;48.012;7.862;2023-09-19T00:35:34;3.80;;;0.50;;
12302;SDS011;6214;48.012;7.862;2023-09-19T00:38:03;3.90;;;0.50;;
12302;SDS011;6214;48.012;7.862;2023-09-19T00:40:30;4.10;;;0.60;;
12302;SDS011;6214;48.012;7.862;2023-09-19T00:42:57;3.90;;;0.50;;
12302;SDS011;6214;48.012;7.862;2023-09-19T00:45:27;4.40;;;0.52;;
12302;SDS011;6214;48.012;7.862;2023-09-19T00:47:55;3.80;;;0.50;;
12302;SDS011;6214;48.012;7.862;2023-09-19T00:50:24;3.80;;;0.50;;
12302;SDS011;6214;48.012;7.862;2023-09-19T00:52:54;3.97;;;0.70;;
12302;SDS011;6214;48.012;7.862;2023-09-19T00:55:24;3.80;;;0.40;;
12302;SDS011;6214;48.012;7.862;2023-09-19T00:57:52;3.72;;;0.40;;
12302;SDS011;6214;48.012;7.862;2023-09-19T01:00:21;3.80;;;0.40;;
12302;SDS011;6214;48.012;7.862;2023-09-19T01:02:49;4.10;;;0.50;;
12302;SDS011;6214;48.012;7.862;2023-09-19T01:05:17;3.80;;;0.50;;
12302;SDS011;6214;48.012;7.862;2023-09-19T01:07:44;3.90;;;0.63;;
12302;SDS011;6214;48.012;7.862;2023-09-19T01:10:12;4.00;;;0.60;;
12302;SDS011;6214;48.012;7.862;2023-09-19T01:18:16;4.60;;;0.60;;
12302;SDS011;6214;48.012;7.862;2023-09-19T01:21:05;3.92;;;0.60;;
12302;SDS011;6214;48.012;7.862;2023-09-19T01:29:49;4.10;;;0.50;;
12302;SDS011;6214;48.012;7.862;2023-09-19T01:32:17;4.10;;;0.50;;
12302;SDS011;6214;48.012;7.862;2023-09-19T01:34:50;3.95;;;0.47;;
12302;SDS011;6214;48.012;7.862;2023-09-19T01:37:24;4.10;;;0.50;;
12302;SDS011;6214;48.012;7.862;2023-09-19T01:39:57;4.10;;;0.50;;
12302;SDS011;6214;48.012;7.862;2023-09-19T01:42:28;3.83;;;0.50;;
12302;SDS011;6214;48.012;7.862;2023-09-19T01:47:35;4.20;;;0.50;;
12302;SDS011;6214;48.012;7.862;2023-09-19T01:50:17;3.80;;;0.40;;
12302;SDS011;6214;48.012;7.862;2023-09-19T01:52:57;3.83;;;0.50;;
12302;SDS011;6214;48.012;7.862;2023-09-19T01:55:30;3.70;;;0.40;;
12302;SDS011;6214;48.012;7.862;2023-09-19T01:58:07;4.20;;;0.47;;
12302;SDS011;6214;48.012;7.862;2023-09-19T02:00:52;3.90;;;0.50;;
12302;SDS011;6214;48.012;7.862;2023-09-19T02:03:21;4.30;;;0.60;;
12302;SDS011;6214;48.012;7.862;2023-09-19T02:05:49;3.90;;;0.50;;
12302;SDS011;6214;48.012;7.862;2023-09-19T02:08:18;3.90;;;0.50;;
12302;SDS011;6214;48.012;7.862;2023-09-19T02:10:46;4.00;;;0.57;;
12302;SDS011;6214;48.012;7.862;2023-09-19T02:13:16;3.97;;;0.40;;
12302;SDS011;6214;48.012;7.862;2023-09-19T02:15:45;3.90;;;0.50;;
12302;SDS011;6214;48.012;7.862;2023-09-19T02:18:13;4.05;;;0.60;;
12302;SDS011;6214;48.012;7.862;2023-09-19T02:20:40;3.80;;;0.50;;
12302;SDS011;6214;48.012;7.862;2023-09-19T02:23:08;3.80;;;0.43;;
12302;SDS011;6214;48.012;7.862;2023-09-19T02:25:36;3.80;;;0.40;;
12302;SDS011;6214;48.012;7.862;2023-09-19T02:28:04;4.10;;;0.40;;
12302;SDS011;6214;48.012;7.862;2023-09-19T02:30:32;3.80;;;0.50;;
12302;SDS011;6214;48.012;7.862;2023-09-19T02:33:00;4.10;;;0.55;;
12302;SDS011;6214;48.012;7.862;2023-09-19T02:35:30;4.90;;;0.50;;
12302;SDS011;6214;48.012;7.862;2023-09-19T02:38:02;3.90;;;0.50;;
12302;SDS011;6214;48.012;7.862;2023-09-19T02:40:32;4.10;;;0.50;;
12302;SDS011;6214;48.012;7.862;2023-09-19T02:43:02;3.72;;;0.40;;
12302;SDS011;6214;48.012;7.862;2023-09-19T02:45:31;3.90;;;0.50;;
12302;SDS011;6214;48.012;7.862;2023-09-19T02:47:58;4.40;;;0.50;;
12302;SDS011;6214;48.012;7.862;2023-09-19T02:50:25;3.90;;;0.50;;
12302;SDS011;6214;48.012;7.862;2023-09-19T02:52:52;3.90;;;0.50;;
12302;SDS011;6214;48.012;7.862;2023-09-19T02:55:19;4.40;;;0.50;;
12302;SDS011;6214;48.012;7.862;2023-09-19T02:57:49;4.00;;;0.60;;
12302;SDS011;6214;48.012;7.862;2023-09-19T03:00:17;4.00;;;0.50;;
12302;SDS011;6214;48.012;7.862;2023-09-19T03:02:49;3.83;;;0.40;;
12302;SDS011;6214;48.012;7.862;2023-09-19T03:05:18;3.90;;;0.50;;
12302;SDS011;6214;48.012;7.862;2023-09-19T03:07:46;3.80;;;0.40;;
12302;SDS011;6214;48.012;7.862;2023-09-19T03:10:17;4.00;;;0.57;;
12302;SDS011;6214;48.012;7.862;2023-09-19T03:15:57;3.80;;;0.50;;
12302;SDS011;6214;48.012;7.862;2023-09-19T03:18:24;3.70;;;0.40;;
12302;SDS011;6214;48.012;7.862;2023-09-19T03:20:53;4.40;;;0.90;;
12302;SDS011;6214;48.012;7.862;2023-09-19T03:23:23;4.40;;;0.50;;
12302;SDS011;6214;48.012;7.862;2023-09-19T03:25:50;3.88;;;0.45;;
12302;SDS011;6214;48.012;7.862;2023-09-19T03:28:19;4.00;;;0.50;;
12302;SDS011;6214;48.012;7.862;2023-09-19T03:33:44;4.00;;;0.60;;
12302;SDS011;6214;48.012;7.862;2023-09-19T03:36:11;3.90;;;0.50;;
12302;SDS011;6214;48.012;7.862;2023-09-19T03:38:39;4.50;;;0.70;;
12302;SDS011;6214;48.012;7.862;2023-09-19T03:41:06;4.10;;;0.70;;
12302;SDS011;6214;48.012;7.862;2023-09-19T03:43:33;4.90;;;0.70;;
12302;SDS011;6214;48.012;7.862;2023-09-19T03:46:01;4.20;;;0.52;;
12302;SDS011;6214;48.012;7.862;2023-09-19T03:48:32;4.40;;;0.60;;
12302;SDS011;6214;48.012;7.862;2023-09-19T03:51:00;3.90;;;0.50;;
12302;SDS011;6214;48.012;7.862;2023-09-19T03:53:27;4.00;;;0.60;;
12302;SDS011;6214;48.012;7.862;2023-09-19T03:55:54;4.15;;;0.60;;
12302;SDS011;6214;48.012;7.862;2023-09-19T03:58:21;3.80;;;0.50;;
12302;SDS011;6214;48.012;7.862;2023-09-19T04:00:48;4.20;;;0.60;;
12302;SDS011;6214;48.012;7.862;2023-09-19T04:03:17;3.80;;;0.50;;
12302;SDS011;6214;48.012;7.862;2023-09-19T04:05:46;4.50;;;0.70;;
12302;SDS011;6214;48.012;7.862;2023-09-19T04:08:16;4.03;;;0.70;;
12302;SDS011;6214;48.012;7.862;2023-09-19T04:10:43;4.00;;;0.60;;
12302;SDS011;6214;48.012;7.862;2023-09-19T04:13:12;3.88;;;0.50;;
12302;SDS011;6214;48.012;7.862;2023-09-19T04:15:39;4.00;;;0.50;;
12302;SDS011;6214;48.012;7.862;2023-09-19T04:18:07;4.20;;;0.60;;
12302;SDS011;6214;48.012;7.862;2023-09-19T04:20:34;4.10;;;0.60;;
12302;SDS011;6214;48.012;7.862;2023-09-19T04:23:01;4.20;;;0.70;;
12302;SDS011;6214;48.012;7.862;2023-09-19T04:25:28;4.00;;;0.70;;
12302;SDS011;6214;48.012;7.862;2023-09-19T04:27:55;4.00;;;0.50;;
12302;SDS011;6214;48.012;7.862;2023-09-19T04:30:22;3.90;;;0.60;;
12302;SDS011;6214;48.012;7.862;2023-09-19T04:32:49;4.03;;;0.63;;
12302;SDS011;6214;48.012;7.862;2023-09-19T04:35:18;4.20;;;0.70;;
12302;SDS011;6214;48.012;7.862;2023-09-19T04:37:45;4.20;;;0.60;;
12302;SDS011;6214;48.012;7.862;2023-09-19T04:40:13;4.20;;;0.80;;
12302;SDS011;6214;48.012;7.862;2023-09-19T04:42:44;4.30;;;0.80;;
12302;SDS011;6214;48.012;7.862;2023-09-19T04:45:12;4.00;;;0.70;;
12302;SDS011;6214;48.012;7.862;2023-09-19T04:47:39;4.70;;;0.70;;
12302;SDS011;6214;48.012;7.862;2023-09-19T04:50:07;4.00;;;0.60;;
12302;SDS011;6214;48.012;7.862;2023-09-19T04:52:41;4.10;;;0.70;;
12302;SDS011;6214;48.012;7.862;2023-09-19T04:57:46;4.30;;;0.60;;
12302;SDS011;6214;48.012;7.862;2023-09-19T05:00:15;3.90;;;0.50;;
12302;SDS011;6214;48.012;7.862;2023-09-19T05:02:46;3.80;;;0.40;;
12302;SDS011;6214;48.012;7.862;2023-09-19T05:05:15;3.80;;;0.47;;
12302;SDS011;6214;48.012;7.862;2023-09-19T05:07:46;3.90;;;0.50;;
12302;SDS011;6214;48.012;7.862;2023-09-19T05:10:13;4.30;;;0.50;;
12302;SDS011;6214;48.012;7.862;2023-09-19T05:12:41;4.07;;;0.60;;
12302;SDS011;6214;48.012;7.862;2023-09-19T05:15:08;3.80;;;0.50;;
12302;SDS011;6214;48.012;7.862;2023-09-19T05:17:35;4.10;;;0.50;;
12302;SDS011;6214;48.012;7.862;2023-09-19T05:20:03;3.90;;;0.52;;
12302;SDS011;6214;48.012;7.862;2023-09-19T05:22:42;4.00;;;0.70;;
12302;SDS011;6214;48.012;7.862;2023-09-19T05:25:10;3.90;;;0.50;;
12302;SDS011;6214;48.012;7.862;2023-09-19T05:27:37;3.90;;;0.50;;
12302;SDS011;6214;48.012;7.862;2023-09-19T05:30:04;4.00;;;0.52;;
12302;SDS011;6214;48.012;7.862;2023-09-19T05:32:33;4.10;;;0.70;;
12302;SDS011;6214;48.012;7.862;2023-09-19T05:35:00;4.20;;;0.75;;
12302;SDS011;6214;48.012;7.862;2023-09-19T05:37:27;4.30;;;0.60;;
12302;SDS011;6214;48.012;7.862;2023-09-19T05:39:56;4.13;;;0.60;;
12302;SDS011;6214;48.012;7.862;2023-09-19T05:42:23;4.07;;;0.70;;
12302;SDS011;6214;48.012;7.862;2023-09-19T05:44:50;3.90;;;0.53;;
12302;SDS011;6214;48.012;7.862;2023-09-19T05:47:17;4.15;;;0.63;;
12302;SDS011;6214;48.012;7.862;2023-09-19T05:49:45;3.90;;;0.60;;
12302;SDS011;6214;48.012;7.862;2023-09-19T05:52:12;4.00;;;0.57;;
12302;SDS011;6214;48.012;7.862;2023-09-19T05:54:39;4.07;;;0.70;;
12302;SDS011;6214;48.012;7.862;2023-09-19T05:57:05;4.10;;;0.70;;
12302;SDS011;6214;48.012;7.862;2023-09-19T05:59:33;4.00;;;0.50;;
12302;SDS011;6214;48.012;7.862;2023-09-19T06:02:00;4.20;;;0.70;;
12302;SDS011;6214;48.012;7.862;2023-09-19T06:04:27;4.10;;;0.60;;
12302;SDS011;6214;48.012;7.862;2023-09-19T06:06:57;3.80;;;0.60;;
12302;SDS011;6214;48.012;7.862;2023-09-19T06:09:24;4.20;;;0.70;;
12302;SDS011;6214;48.012;7.862;2023-09-19T06:11:54;4.03;;;0.60;;
12302;SDS011;6214;48.012;7.862;2023-09-19T06:14:22;4.00;;;0.65;;
12302;SDS011;6214;48.012;7.862;2023-09-19T06:16:50;4.80;;;0.60;;
12302;SDS011;6214;48.012;7.862;2023-09-19T06:19:20;3.90;;;0.50;;
12302;SDS011;6214;48.012;7.862;2023-09-19T06:21:49;3.90;;;0.60;;
12302;SDS011;6214;48.012;7.862;2023-09-19T06:24:16;3.70;;;0.40;;
12302;SDS011;6214;48.012;7.862;2023-09-19T06:26:43;4.20;;;0.60;;
12302;SDS011;6214;48.012;7.862;2023-09-19T06:29:10;3.90;;;0.50;;
12302;SDS011;6214;48.012;7.862;2023-09-19T06:31:38;3.80;;;0.50;;
12302;SDS011;6214;48.012;7.862;2023-09-19T06:34:06;3.90;;;0.52;;
12302;SDS011;6214;48.012;7.862;2023-09-19T06:36:33;3.80;;;0.55;;
12302;SDS011;6214;48.012;7.862;2023-09-19T06:39:00;4.00;;;0.63;;
12302;SDS011;6214;48.012;7.862;2023-09-19T06:41:27;4.40;;;0.50;;
12302;SDS011;6214;48.012;7.862;2023-09-19T06:43:56;3.80;;;0.50;;
12302;SDS011;6214;48.012;7.862;2023-09-19T06:46:24;4.10;;;0.60;;
12302;SDS011;6214;48.012;7.862;2023-09-19T06:48:51;4.00;;;0.70;;
12302;SDS011;6214;48.012;7.862;2023-09-19T06:51:19;4.20;;;0.60;;
12302;SDS011;6214;48.012;7.862;2023-09-19T06:53:46;3.90;;;0.50;;
12302;SDS011;6214;48.012;7.862;2023-09-19T06:56:13;4.10;;;0.60;;
12302;SDS011;6214;48.012;7.862;2023-09-19T06:58:40;4.40;;;0.70;;
12302;SDS011;6214;48.012;7.862;2023-09-19T07:01:10;3.85;;;0.52;;
12302;SDS011;6214;48.012;7.862;2023-09-19T07:03:37;3.80;;;0.50;;
12302;SDS011;6214;48.012;7.862;2023-09-19T07:06:04;3.90;;;0.50;;
12302;SDS011;6214;48.012;7.862;2023-09-19T07:08:31;4.00;;;0.60;;
12302;SDS011;6214;48.012;7.862;2023-09-19T07:10:58;3.90;;;0.53;;
12302;SDS011;6214;48.012;7.862;2023-09-19T07:13:26;4.20;;;0.50;;
12302;SDS011;6214;48.012;7.862;2023-09-19T07:15:54;4.10;;;0.60;;
12302;SDS011;6214;48.012;7.862;2023-09-19T07:18:21;3.90;;;0.60;;
12302;SDS011;6214;48.012;7.862;2023-09-19T07:20:48;3.90;;;0.57;;
12302;SDS011;6214;48.012;7.862;2023-09-19T07:23:16;4.10;;;0.70;;
12302;SDS011;6214;48.012;7.862;2023-09-19T07:25:48;4.30;;;0.60;;
12302;SDS011;6214;48.012;7.862;2023-09-19T07:28:16;3.90;;;0.60;;
12302;SDS011;6214;48.012;7.862;2023-09-19T07:30:43;3.80;;;0.50;;
12302;SDS011;6214;48.012;7.862;2023-09-19T07:33:10;4.10;;;0.70;;
12302;SDS011;6214;48.012;7.862;2023-09-19T07:35:40;3.90;;;0.60;;
12302;SDS011;6214;48.012;7.862;2023-09-19T07:38:12;3.80;;;0.50;;
12302;SDS011;6214;48.012;7.862;2023-09-19T07:40:39;4.00;;;0.60;;
12302;SDS011;6214;48.012;7.862;2023-09-19T07:43:06;4.10;;;0.63;;
12302;SDS011;6214;48.012;7.862;2023-09-19T07:45:34;4.10;;;0.70;;
12302;SDS011;6214;48.012;7.862;2023-09-19T07:48:03;3.80;;;0.50;;
12302;SDS011;6214;48.012;7.862;2023-09-19T07:50:40;3.92;;;0.50;;
12302;SDS011;6214;48.012;7.862;2023-09-19T07:53:11;4.05;;;0.52;;
12302;SDS011;6214;48.012;7.862;2023-09-19T07:55:43;4.63;;;0.50;;
12302;SDS011;6214;48.012;7.862;2023-09-19T07:58:14;5.07;;;0.60;;
12302;SDS011;6214;48.012;7.862;2023-09-19T08:00:42;4.00;;;0.50;;
12302;SDS011;6214;48.012;7.862;2023-09-19T08:03:09;4.10;;;0.50;;
12302;SDS011;6214;48.012;7.862;2023-09-19T08:05:43;3.90;;;0.40;;
12302;SDS011;6214;48.012;7.862;2023-09-19T08:08:11;4.10;;;0.60;;
12302;SDS011;6214;48.012;7.862;2023-09-19T08:10:41;4.20;;;0.60;;
12302;SDS011;6214;48.012;7.862;2023-09-19T08:13:12;4.17;;;0.70;;
12302;SDS011;6214;48.012;7.862;2023-09-19T08:15:44;4.10;;;0.70;;
12302;SDS011;6214;48.012;7.862;2023-09-19T08:18:11;4.35;;;0.60;;
12302;SDS011;6214;48.012;7.862;2023-09-19T08:20:39;4.10;;;0.60;;
12302;SDS011;6214;48.012;7.862;2023-09-19T08:23:06;4.40;;;0.50;;
12302;SDS011;6214;48.012;7.862;2023-09-19T08:25:34;4.00;;;0.47;;
12302;SDS011;6214;48.012;7.862;2023-09-19T08:28:01;4.05;;;0.60;;
12302;SDS011;6214;48.012;7.862;2023-09-19T08:30:34;4.00;;;0.50;;
12302;SDS011;6214;48.012;7.862;2023-09-19T08:33:01;4.07;;;0.57;;
12302;SDS011;6214;48.012;7.862;2023-09-19T08:35:31;4.80;;;0.50;;
12302;SDS011;6214;48.012;7.862;2023-09-19T08:37:58;4.00;;;0.50;;
12302;SDS011;6214;48.012;7.862;2023-09-19T08:40:30;4.00;;;0.50;;
12302;SDS011;6214;48.012;7.862;2023-09-19T08:42:59;4.10;;;0.60;;
12302;SDS011;6214;48.012;7.862;2023-09-19T08:45:26;4.00;;;0.40;;
12302;SDS011;6214;48.012;7.862;2023-09-19T08:50:29;4.20;;;0.70;;
12302;SDS011;6214;48.012;7.862;2023-09-19T08:53:00;4.50;;;0.50;;
12302;SDS011;6214;48.012;7.862;2023-09-19T08:55:28;3.93;;;0.50;;
12302;SDS011;6214;48.012;7.862;2023-09-19T08:57:59;4.10;;;0.50;;
12302;SDS011;6214;48.012;7.862;2023-09-19T09:00:36;4.10;;;0.60;;
12302;SDS011;6214;48.012;7.862;2023-09-19T09:03:09;4.00;;;0.60;;
12302;SDS011;6214;48.012;7.862;2023-09-19T09:05:36;4.30;;;0.80;;
12302;SDS011;6214;48.012;7.862;2023-09-19T09:08:07;3.97;;;0.50;;
12302;SDS011;6214;48.012;7.862;2023-09-19T09:10:34;3.90;;;0.50;;
12302;SDS011;6214;48.012;7.862;2023-09-19T09:13:01;4.25;;;0.60;;
12302;SDS011;6214;48.012;7.862;2023-09-19T09:15:31;3.97;;;0.50;;
12302;SDS011;6214;48.012;7.862;2023-09-19T09:18:01;4.00;;;0.70;;
12302;SDS011;6214;48.012;7.862;2023-09-19T09:20:31;4.80;;;0.60;;
12302;SDS011;6214;48.012;7.862;2023-09-19T09:22:58;4.40;;;0.70;;
12302;SDS011;6214;48.012;7.862;2023-09-19T09:28:44;4.97;;;0.80;;
12302;SDS011;6214;48.012;7.862;2023-09-19T09:31:24;4.40;;;0.70;;
12302;SDS011;6214;48.012;7.862;2023-09-19T09:33:55;4.00;;;0.52;;
12302;SDS011;6214;48.012;7.862;2023-09-19T09:36:33;4.10;;;0.60;;
12302;SDS011;6214;48.012;7.862;2023-09-19T09:39:05;4.30;;;0.60;;
12302;SDS011;6214;48.012;7.862;2023-09-19T09:41:45;4.50;;;0.90;;
12302;SDS011;6214;48.012;7.862;2023-09-19T09:44:16;4.30;;;0.50;;
12302;SDS011;6214;48.012;7.862;2023-09-19T09:46:46;4.32;;;0.60;;
12302;SDS011;6214;48.012;7.862;2023-09-19T09:49:23;4.15;;;0.50;;
12302;SDS011;6214;48.012;7.862;2023-09-19T09:52:06;4.00;;;0.50;;
12302;SDS011;6214;48.012;7.862;2023-09-19T09:54:37;3.97;;;0.60;;
12302;SDS011;6214;48.012;7.862;2023-09-19T09:57:08;3.90;;;0.50;;
12302;SDS011;6214;48.012;7.862;2023-09-19T09:59:57;4.00;;;0.50;;
12302;SDS011;6214;48.012;7.862;2023-09-19T10:02:42;4.20;;;0.80;;
12302;SDS011;6214;48.012;7.862;2023-09-19T10:05:14;4.95;;;1.20;;
12302;SDS011;6214;48.012;7.862;2023-09-19T10:07:49;6.28;;;1.20;;
12302;SDS011;6214;48.012;7.862;2023-09-19T10:10:35;5.50;;;1.30;;
12302;SDS011;6214;48.012;7.862;2023-09-19T10:13:10;6.30;;;1.30;;
12302;SDS011;6214;48.012;7.862;2023-09-19T10:15:42;6.25;;;1.20;;
12302;SDS011;6214;48.012;7.862;2023-09-19T10:18:15;5.72;;;1.20;;
12302;SDS011;6214;48.012;7.862;2023-09-19T10:20:47;4.93;;;1.30;;
12302;SDS011;6214;48.012;7.862;2023-09-19T10:23:18;5.63;;;1.10;;
12302;SDS011;6214;48.012;7.862;2023-09-19T10:25:50;5.88;;;1.10;;
12302;SDS011;6214;48.012;7.862;2023-09-19T10:28:20;5.20;;;1.40;;
12302;SDS011;6214;48.012;7.862;2023-09-19T10:30:51;6.35;;;1.30;;
12302;SDS011;6214;48.012;7.862;2023-09-19T10:33:21;5.00;;;1.20;;
12302;SDS011;6214;48.012;7.862;2023-09-19T10:35:56;5.35;;;1.30;;
12302;SDS011;6214;48.012;7.862;2023-09-19T10:38:26;4.82;;;1.30;;
12302;SDS011;6214;48.012;7.862;2023-09-19T10:40:56;5.00;;;1.20;;
12302;SDS011;6214;48.012;7.862;2023-09-19T10:43:31;4.63;;;1.20;;
12302;SDS011;6214;48.012;7.862;2023-09-19T10:46:11;4.90;;;1.38;;
12302;SDS011;6214;48.012;7.862;2023-09-19T10:48:39;4.70;;;1.20;;
12302;SDS011;6214;48.012;7.862;2023-09-19T10:51:11;5.03;;;1.20;;
12302;SDS011;6214;48.012;7.862;2023-09-19T10:54:30;5.00;;;1.40;;
12302;SDS011;6214;48.012;7.862;2023-09-19T10:56:44;5.60;;;1.60;;
12302;SDS011;6214;48.012;7.862;2023-09-19T10:59:16;5.15;;;1.20;;
12302;SDS011;6214;48.012;7.862;2023-09-19T11:01:48;5.00;;;1.20;;
12302;SDS011;6214;48.012;7.862;2023-09-19T11:04:27;5.28;;;1.10;;
12302;SDS011;6214;48.012;7.862;2023-09-19T11:07:06;4.90;;;1.10;;
12302;SDS011;6214;48.012;7.862;2023-09-19T11:09:44;4.80;;;1.30;;
12302;SDS011;6214;48.012;7.862;2023-09-19T11:26:49;4.70;;;1.10;;
12302;SDS011;6214;48.012;7.862;2023-09-19T11:29:32;4.60;;;1.20;;
12302;SDS011;6214;48.012;7.862;2023-09-19T11:31:59;5.15;;;1.30;;
12302;SDS011;6214;48.012;7.862;2023-09-19T11:42:43;5.43;;;1.40;;
12302;SDS011;6214;48.012;7.862;2023-09-19T11:48:07;5.70;;;1.40;;
12302;SDS011;6214;48.012;7.862;2023-09-19T11:50:35;4.78;;;1.40;;
12302;SDS011;6214;48.012;7.862;2023-09-19T11:53:04;5.50;;;1.50;;
12302;SDS011;6214;48.012;7.862;2023-09-19T11:55:32;4.70;;;1.30;;
12302;SDS011;6214;48.012;7.862;2023-09-19T11:58:00;4.80;;;1.30;;
12302;SDS011;6214;48.012;7.862;2023-09-19T12:00:27;4.85;;;1.40;;
12302;SDS011;6214;48.012;7.862;2023-09-19T12:02:55;5.28;;;1.40;;
12302;SDS011;6214;48.012;7.862;2023-09-19T12:05:28;5.07;;;1.40;;
12302;SDS011;6214;48.012;7.862;2023-09-19T12:07:56;5.30;;;1.30;;
12302;SDS011;6214;48.012;7.862;2023-09-19T12:10:23;4.82;;;1.30;;
12302;SDS011;6214;48.012;7.862;2023-09-19T12:12:50;5.10;;;1.20;;
12302;SDS011;6214;48.012;7.862;2023-09-19T12:15:23;6.10;;;1.60;;
12302;SDS011;6214;48.012;7.862;2023-09-19T12:17:55;4.90;;;1.48;;
12302;SDS011;6214;48.012;7.862;2023-09-19T12:20:22;4.50;;;1.38;;
12302;SDS011;6214;48.012;7.862;2023-09-19T12:22:50;5.13;;;1.30;;
12302;SDS011;6214;48.012;7.862;2023-09-19T12:25:17;5.47;;;1.53;;
12302;SDS011;6214;48.012;7.862;2023-09-19T12:27:45;6.75;;;1.50;;
12302;SDS011;6214;48.012;7.862;2023-09-19T12:30:14;4.80;;;1.40;;
12302;SDS011;6214;48.012;7.862;2023-09-19T12:32:47;5.05;;;1.30;;
12302;SDS011;6214;48.012;7.862;2023-09-19T12:35:32;5.05;;;1.30;;
12302;SDS011;6214;48.012;7.862;2023-09-19T12:38:02;5.03;;;1.60;;
12302;SDS011;6214;48.012;7.862;2023-09-19T12:40:30;4.70;;;1.30;;
12302;SDS011;6214;48.012;7.862;2023-09-19T12:43:00;4.57;;;1.20;;
12302;SDS011;6214;48.012;7.862;2023-09-19T12:45:30;5.13;;;1.38;;
12302;SDS011;6214;48.012;7.862;2023-09-19T12:48:31;5.10;;;1.20;;
12302;SDS011;6214;48.012;7.862;2023-09-19T12:53:36;4.80;;;1.33;;
12302;SDS011;6214;48.012;7.862;2023-09-19T12:56:13;5.10;;;1.20;;
12302;SDS011;6214;48.012;7.862;2023-09-19T12:58:55;4.90;;;1.40;;
12302;SDS011;6214;48.012;7.862;2023-09-19T13:01:26;4.75;;;1.20;;
12302;SDS011;6214;48.012;7.862;2023-09-19T13:06:52;4.40;;;1.10;;
12302;SDS011;6214;48.012;7.862;2023-09-19T13:09:22;5.70;;;1.20;;
12302;SDS011;6214;48.012;7.862;2023-09-19T13:12:00;5.00;;;1.23;;
12302;SDS011;6214;48.012;7.862;2023-09-19T13:14:29;4.63;;;1.17;;
12302;SDS011;6214;48.012;7.862;2023-09-19T13:17:04;4.63;;;1.20;;
12302;SDS011;6214;48.012;7.862;2023-09-19T13:19:46;4.60;;;1.10;;
12302;SDS011;6214;48.012;7.862;2023-09-19T13:25:12;5.25;;;1.20;;
12302;SDS011;6214;48.012;7.862;2023-09-19T13:27:48;4.80;;;1.00;;
12302;SDS011;6214;48.012;7.862;2023-09-19T13:30:20;5.10;;;1.20;;
12302;SDS011;6214;48.012;7.862;2023-09-19T13:32:49;4.50;;;1.00;;
12302;SDS011;6214;48.012;7.862;2023-09-19T13:35:17;5.90;;;1.00;;
12302;SDS011;6214;48.012;7.862;2023-09-19T13:37:44;4.80;;;1.00;;
12302;SDS011;6214;48.012;7.862;2023-09-19T13:40:15;4.57;;;1.00;;
12302;SDS011;6214;48.012;7.862;2023-09-19T13:42:42;4.50;;;1.10;;
12302;SDS011;6214;48.012;7.862;2023-09-19T13:45:10;4.60;;;1.13;;
12302;SDS011;6214;48.012;7.862;2023-09-19T13:47:39;4.70;;;0.90;;
12302;SDS011;6214;48.012;7.862;2023-09-19T13:50:07;4.80;;;1.00;;
12302;SDS011;6214;48.012;7.862;2023-09-19T13:52:35;5.38;;;1.05;;
12302;SDS011;6214;48.012;7.862;2023-09-19T13:55:02;4.60;;;1.10;;
12302;SDS011;6214;48.012;7.862;2023-09-19T13:57:30;4.80;;;1.05;;
12302;SDS011;6214;48.012;7.862;2023-09-19T13:59:57;4.40;;;0.90;;
12302;SDS011;6214;48.012;7.862;2023-09-19T14:02:24;4.38;;;1.10;;
12302;SDS011;6214;48.012;7.862;2023-09-19T14:04:51;4.40;;;1.00;;
12302;SDS011;6214;48.012;7.862;2023-09-19T14:07:19;4.70;;;0.90;;
12302;SDS011;6214;48.012;7.862;2023-09-19T14:09:46;4.22;;;0.90;;
12302;SDS011;6214;48.012;7.862;2023-09-19T14:12:14;5.40;;;1.00;;
12302;SDS011;6214;48.012;7.862;2023-09-19T14:14:41;4.32;;;1.00;;
12302;SDS011;6214;48.012;7.862;2023-09-19T14:17:09;4.60;;;1.00;;
12302;SDS011;6214;48.012;7.862;2023-09-19T14:19:36;4.72;;;1.27;;
12302;SDS011;6214;48.012;7.862;2023-09-19T14:22:04;4.20;;;0.90;;
12302;SDS011;6214;48.012;7.862;2023-09-19T14:24:34;4.20;;;0.90;;
12302;SDS011;6214;48.012;7.862;2023-09-19T14:27:02;5.50;;;1.00;;
12302;SDS011;6214;48.012;7.862;2023-09-19T14:29:30;5.20;;;1.10;;
12302;SDS011;6214;48.012;7.862;2023-09-19T14:31:58;4.70;;;1.10;;
12302;SDS011;6214;48.012;7.862;2023-09-19T14:34:26;4.78;;;1.10;;
12302;SDS011;6214;48.012;7.862;2023-09-19T14:36:54;4.88;;;1.20;;
12302;SDS011;6214;48.012;7.862;2023-09-19T14:39:21;4.90;;;1.20;;
12302;SDS011;6214;48.012;7.862;2023-09-19T14:41:48;4.60;;;1.30;;
12302;SDS011;6214;48.012;7.862;2023-09-19T14:44:15;4.90;;;1.20;;
12302;SDS011;6214;48.012;7.862;2023-09-19T14:46:43;4.80;;;1.17;;
12302;SDS011;6214;48.012;7.862;2023-09-19T14:49:12;4.40;;;1.10;;
12302;SDS011;6214;48.012;7.862;2023-09-19T14:51:43;4.75;;;1.10;;
12302;SDS011;6214;48.012;7.862;2023-09-19T14:54:11;4.80;;;1.20;;
12302;SDS011;6214;48.012;7.862;2023-09-19T14:56:38;5.10;;;1.50;;
12302;SDS011;6214;48.012;7.862;2023-09-19T14:59:06;5.20;;;1.10;;
12302;SDS011;6214;48.012;7.862;2023-09-19T15:01:34;5.27;;;1.17;;
12302;SDS011;6214;48.012;7.862;2023-09-19T15:04:01;4.70;;;1.13;;
12302;SDS011;6214;48.012;7.862;2023-09-19T15:06:29;4.60;;;1.10;;
12302;SDS011;6214;48.012;7.862;2023-09-19T15:08:56;4.80;;;1.30;;
12302;SDS011;6214;48.012;7.862;2023-09-19T15:11:24;4.70;;;1.20;;
12302;SDS011;6214;48.012;7.862;2023-09-19T15:13:51;4.40;;;1.10;;
12302;SDS011;6214;48.012;7.862;2023-09-19T15:16:20;4.70;;;1.30;;
12302;SDS011;6214;48.012;7.862;2023-09-19T15:18:48;4.90;;;1.10;;
12302;SDS011;6214;48.012;7.862;2023-09-19T15:21:16;5.10;;;1.10;;
12302;SDS011;6214;48.012;7.862;2023-09-19T15:23:43;4.72;;;1.40;;
12302;SDS011;6214;48.012;7.862;2023-09-19T15:26:12;4.70;;;1.17;;
12302;SDS011;6214;48.012;7.862;2023-09-19T15:28:40;4.82;;;1.20;;
12302;SDS011;6214;48.012;7.862;2023-09-19T15:31:09;4.75;;;1.15;;
12302;SDS011;6214;48.012;7.862;2023-09-19T15:33:38;4.60;;;1.20;;
12302;SDS011;6214;48.012;7.862;2023-09-19T15:36:06;4.57;;;1.20;;
12302;SDS011;6214;48.012;7.862;2023-09-19T15:41:38;5.13;;;1.40;;
12302;SDS011;6214;48.012;7.862;2023-09-19T15:44:11;4.50;;;1.10;;
12302;SDS011;6214;48.012;7.862;2023-09-19T15:46:40;4.83;;;1.30;;
12302;SDS011;6214;48.012;7.862;2023-09-19T15:49:07;4.93;;;1.10;;
12302;SDS011;6214;48.012;7.862;2023-09-19T15:51:35;5.30;;;1.30;;
12302;SDS011;6214;48.012;7.862;2023-09-19T15:54:11;4.63;;;1.30;;
12302;SDS011;6214;48.012;7.862;2023-09-19T15:56:43;5.10;;;1.70;;
12302;SDS011;6214;48.012;7.862;2023-09-19T15:59:11;6.75;;;2.70;;
12302;SDS011;6214;48.012;7.862;2023-09-19T16:01:40;6.38;;;3.00;;
12302;SDS011;6214;48.012;7.862;2023-09-19T16:04:09;5.18;;;1.27;;
12302;SDS011;6214;48.012;7.862;2023-09-19T16:06:37;4.50;;;1.20;;
12302;SDS011;6214;48.012;7.862;2023-09-19T16:09:05;5.10;;;1.10;;
12302;SDS011;6214;48.012;7.862;2023-09-19T16:11:33;4.90;;;1.10;;
12302;SDS011;6214;48.012;7.862;2023-09-19T16:14:02;4.82;;;1.08;;
12302;SDS011;6214;48.012;7.862;2023-09-19T16:16:31;4.93;;;1.20;;
12302;SDS011;6214;48.012;7.862;2023-09-19T16:19:00;4.60;;;1.30;;
12302;SDS011;6214;48.012;7.862;2023-09-19T16:21:30;4.85;;;0.80;;